sensor_id;sensor_type;location;lat;lon;timestamp;temperature;humidity
25554;DHT22;13446;50.926;5.332;2022-08-19T00:00:44;21.80;99.90
25554;DHT22;13446;50.926;5.332;2022-08-19T00:03:10;21.80;99.90
25554;DHT22;13446;50.926;5.332;2022-08-19T00:05:36;21.80;99.90
25554;DHT22;13446;50.926;5.332;2022-08-19T00:08:01;21.80;99.90
25554;DHT22;13446;50.926;5.332;2022-08-19T00:10:27;21.70;99.90
25554;DHT22;13446;50.926;5.332;2022-08-19T00:12:53;21.70;99.90
25554;DHT22;13446;50.926;5.332;2022-08-19T00:15:19;21.70;99.90
25554;DHT22;13446;50.926;5.332;2022-08-19T00:17:45;21.60;99.90
25554;DHT22;13446;50.926;5.332;2022-08-19T00:20:12;21.50;99.90
25554;DHT22;13446;50.926;5.332;2022-08-19T00:22:38;21.40;99.90
25554;DHT22;13446;50.926;5.332;2022-08-19T00:25:04;21.40;99.90
25554;DHT22;13446;50.926;5.332;2022-08-19T00:27:30;21.50;99.90
25554;DHT22;13446;50.926;5.332;2022-08-19T00:29:55;21.40;99.90
25554;DHT22;13446;50.926;5.332;2022-08-19T00:32:21;21.40;99.90
25554;DHT22;13446;50.926;5.332;2022-08-19T00:34:47;21.30;99.90
25554;DHT22;13446;50.926;5.332;2022-08-19T00:37:12;21.20;99.90
25554;DHT22;13446;50.926;5.332;2022-08-19T00:39:38;21.10;99.90
25554;DHT22;13446;50.926;5.332;2022-08-19T00:42:03;21.10;99.90
25554;DHT22;13446;50.926;5.332;2022-08-19T00:44:29;21.00;99.90
25554;DHT22;13446;50.926;5.332;2022-08-19T00:46:56;21.10;99.90
25554;DHT22;13446;50.926;5.332;2022-08-19T00:49:24;21.00;99.90
25554;DHT22;13446;50.926;5.332;2022-08-19T00:51:53;21.10;99.90
25554;DHT22;13446;50.926;5.332;2022-08-19T00:54:20;21.20;99.90
25554;DHT22;13446;50.926;5.332;2022-08-19T00:56:46;21.10;99.90
25554;DHT22;13446;50.926;5.332;2022-08-19T00:59:13;21.00;99.90
25554;DHT22;13446;50.926;5.332;2022-08-19T01:01:39;21.00;99.90
25554;DHT22;13446;50.926;5.332;2022-08-19T01:04:05;21.00;99.90
25554;DHT22;13446;50.926;5.332;2022-08-19T01:06:31;20.90;99.90
25554;DHT22;13446;50.926;5.332;2022-08-19T01:08:58;20.90;99.90
25554;DHT22;13446;50.926;5.332;2022-08-19T01:11:24;20.80;99.90
25554;DHT22;13446;50.926;5.332;2022-08-19T01:13:50;20.90;99.90
25554;DHT22;13446;50.926;5.332;2022-08-19T01:16:16;20.70;99.90
25554;DHT22;13446;50.926;5.332;2022-08-19T01:18:42;20.80;99.90
25554;DHT22;13446;50.926;5.332;2022-08-19T01:21:28;20.80;99.90
25554;DHT22;13446;50.926;5.332;2022-08-19T01:23:56;20.80;99.90
25554;DHT22;13446;50.926;5.332;2022-08-19T01:26:22;20.70;99.90
25554;DHT22;13446;50.926;5.332;2022-08-19T01:28:49;20.70;99.90
25554;DHT22;13446;50.926;5.332;2022-08-19T01:31:16;20.80;99.90
25554;DHT22;13446;50.926;5.332;2022-08-19T01:33:44;20.70;99.90
25554;DHT22;13446;50.926;5.332;2022-08-19T01:36:12;20.70;99.90
25554;DHT22;13446;50.926;5.332;2022-08-19T01:38:39;20.70;99.90
25554;DHT22;13446;50.926;5.332;2022-08-19T01:41:05;20.80;99.90
25554;DHT22;13446;50.926;5.332;2022-08-19T01:43:31;20.70;99.90
25554;DHT22;13446;50.926;5.332;2022-08-19T01:45:57;20.60;99.90
25554;DHT22;13446;50.926;5.332;2022-08-19T01:48:23;20.50;99.90
25554;DHT22;13446;50.926;5.332;2022-08-19T01:50:48;20.50;99.90
25554;DHT22;13446;50.926;5.332;2022-08-19T01:53:15;20.40;99.90
25554;DHT22;13446;50.926;5.332;2022-08-19T01:55:41;20.40;99.90
25554;DHT22;13446;50.926;5.332;2022-08-19T01:58:10;20.40;99.90
25554;DHT22;13446;50.926;5.332;2022-08-19T02:00:36;20.30;99.90
25554;DHT22;13446;50.926;5.332;2022-08-19T02:03:02;20.40;99.90
25554;DHT22;13446;50.926;5.332;2022-08-19T02:05:27;20.40;99.90
25554;DHT22;13446;50.926;5.332;2022-08-19T02:07:55;20.40;99.90
25554;DHT22;13446;50.926;5.332;2022-08-19T02:10:21;20.40;99.90
25554;DHT22;13446;50.926;5.332;2022-08-19T02:12:47;20.40;99.90
25554;DHT22;13446;50.926;5.332;2022-08-19T02:15:12;20.30;99.90
25554;DHT22;13446;50.926;5.332;2022-08-19T02:17:38;20.30;99.90
25554;DHT22;13446;50.926;5.332;2022-08-19T02:20:04;20.30;99.90
25554;DHT22;13446;50.926;5.332;2022-08-19T02:22:31;20.20;99.90
25554;DHT22;13446;50.926;5.332;2022-08-19T02:24:57;20.20;99.90
25554;DHT22;13446;50.926;5.332;2022-08-19T02:27:22;20.30;99.90
25554;DHT22;13446;50.926;5.332;2022-08-19T02:29:48;20.30;99.90
25554;DHT22;13446;50.926;5.332;2022-08-19T02:32:14;20.20;99.90
25554;DHT22;13446;50.926;5.332;2022-08-19T02:34:40;20.10;99.90
25554;DHT22;13446;50.926;5.332;2022-08-19T02:37:06;20.20;99.90
25554;DHT22;13446;50.926;5.332;2022-08-19T02:39:51;20.10;99.90
25554;DHT22;13446;50.926;5.332;2022-08-19T02:42:17;20.20;99.90
25554;DHT22;13446;50.926;5.332;2022-08-19T02:44:42;20.20;99.90
25554;DHT22;13446;50.926;5.332;2022-08-19T02:47:09;20.00;99.90
25554;DHT22;13446;50.926;5.332;2022-08-19T02:49:34;20.10;99.90
25554;DHT22;13446;50.926;5.332;2022-08-19T02:52:00;20.10;99.90
25554;DHT22;13446;50.926;5.332;2022-08-19T02:54:26;20.00;99.90
25554;DHT22;13446;50.926;5.332;2022-08-19T02:56:53;20.00;99.90
25554;DHT22;13446;50.926;5.332;2022-08-19T02:59:19;20.00;99.90
25554;DHT22;13446;50.926;5.332;2022-08-19T03:01:45;20.00;99.90
25554;DHT22;13446;50.926;5.332;2022-08-19T03:04:11;20.00;99.90
25554;DHT22;13446;50.926;5.332;2022-08-19T03:06:38;19.90;99.90
25554;DHT22;13446;50.926;5.332;2022-08-19T03:09:04;19.80;99.90
25554;DHT22;13446;50.926;5.332;2022-08-19T03:11:30;19.80;99.90
25554;DHT22;13446;50.926;5.332;2022-08-19T03:13:56;19.70;99.90
25554;DHT22;13446;50.926;5.332;2022-08-19T03:16:23;19.70;99.90
25554;DHT22;13446;50.926;5.332;2022-08-19T03:18:49;19.60;99.90
25554;DHT22;13446;50.926;5.332;2022-08-19T03:21:16;19.70;99.90
25554;DHT22;13446;50.926;5.332;2022-08-19T03:23:41;19.70;99.90
25554;DHT22;13446;50.926;5.332;2022-08-19T03:26:07;19.70;99.90
25554;DHT22;13446;50.926;5.332;2022-08-19T03:28:32;19.50;99.90
25554;DHT22;13446;50.926;5.332;2022-08-19T03:31:03;19.50;99.90
25554;DHT22;13446;50.926;5.332;2022-08-19T03:33:30;19.50;99.90
25554;DHT22;13446;50.926;5.332;2022-08-19T03:35:59;19.60;99.90
25554;DHT22;13446;50.926;5.332;2022-08-19T03:38:25;19.60;99.90
25554;DHT22;13446;50.926;5.332;2022-08-19T03:40:50;19.70;99.90
25554;DHT22;13446;50.926;5.332;2022-08-19T03:43:16;19.80;99.90
25554;DHT22;13446;50.926;5.332;2022-08-19T03:45:43;19.60;99.90
25554;DHT22;13446;50.926;5.332;2022-08-19T03:48:08;19.60;99.90
25554;DHT22;13446;50.926;5.332;2022-08-19T03:50:38;19.60;99.90
25554;DHT22;13446;50.926;5.332;2022-08-19T03:53:03;19.60;99.90
25554;DHT22;13446;50.926;5.332;2022-08-19T03:55:29;19.60;99.90
25554;DHT22;13446;50.926;5.332;2022-08-19T03:57:55;19.60;99.90
25554;DHT22;13446;50.926;5.332;2022-08-19T04:00:21;19.50;99.90
25554;DHT22;13446;50.926;5.332;2022-08-19T04:02:47;19.50;99.90
25554;DHT22;13446;50.926;5.332;2022-08-19T04:05:12;19.50;99.90
25554;DHT22;13446;50.926;5.332;2022-08-19T04:07:39;19.50;99.90
25554;DHT22;13446;50.926;5.332;2022-08-19T04:10:05;19.50;99.90
25554;DHT22;13446;50.926;5.332;2022-08-19T04:12:31;19.50;99.90
25554;DHT22;13446;50.926;5.332;2022-08-19T04:14:56;19.40;99.90
25554;DHT22;13446;50.926;5.332;2022-08-19T04:17:23;19.40;99.90
25554;DHT22;13446;50.926;5.332;2022-08-19T04:19:49;19.50;99.90
25554;DHT22;13446;50.926;5.332;2022-08-19T04:22:15;19.40;99.90
25554;DHT22;13446;50.926;5.332;2022-08-19T04:24:40;19.30;99.90
25554;DHT22;13446;50.926;5.332;2022-08-19T04:27:06;19.30;99.90
25554;DHT22;13446;50.926;5.332;2022-08-19T04:29:32;19.30;99.90
25554;DHT22;13446;50.926;5.332;2022-08-19T04:31:58;19.40;99.90
25554;DHT22;13446;50.926;5.332;2022-08-19T04:34:25;19.40;99.90
25554;DHT22;13446;50.926;5.332;2022-08-19T04:36:51;19.30;99.90
25554;DHT22;13446;50.926;5.332;2022-08-19T04:39:19;19.30;99.90
25554;DHT22;13446;50.926;5.332;2022-08-19T04:41:45;19.30;99.90
25554;DHT22;13446;50.926;5.332;2022-08-19T04:44:30;19.20;99.90
25554;DHT22;13446;50.926;5.332;2022-08-19T04:46:56;19.20;99.90
25554;DHT22;13446;50.926;5.332;2022-08-19T04:49:22;19.30;99.90
25554;DHT22;13446;50.926;5.332;2022-08-19T04:51:48;19.30;99.90
25554;DHT22;13446;50.926;5.332;2022-08-19T04:54:15;19.30;99.90
25554;DHT22;13446;50.926;5.332;2022-08-19T04:56:41;19.20;99.90
25554;DHT22;13446;50.926;5.332;2022-08-19T04:59:07;19.20;99.90
25554;DHT22;13446;50.926;5.332;2022-08-19T05:01:33;19.30;99.90
25554;DHT22;13446;50.926;5.332;2022-08-19T05:04:00;19.20;99.90
25554;DHT22;13446;50.926;5.332;2022-08-19T05:06:26;19.20;99.90
25554;DHT22;13446;50.926;5.332;2022-08-19T05:08:51;19.30;99.90
25554;DHT22;13446;50.926;5.332;2022-08-19T05:11:19;19.40;99.90
25554;DHT22;13446;50.926;5.332;2022-08-19T05:13:46;19.40;99.90
25554;DHT22;13446;50.926;5.332;2022-08-19T05:16:12;19.50;99.90
25554;DHT22;13446;50.926;5.332;2022-08-19T05:18:38;19.50;99.90
25554;DHT22;13446;50.926;5.332;2022-08-19T05:21:22;19.50;99.90
25554;DHT22;13446;50.926;5.332;2022-08-19T05:24:06;19.60;99.90
25554;DHT22;13446;50.926;5.332;2022-08-19T05:26:33;19.50;99.90
25554;DHT22;13446;50.926;5.332;2022-08-19T05:28:59;19.60;99.90
25554;DHT22;13446;50.926;5.332;2022-08-19T05:31:24;19.60;99.90
25554;DHT22;13446;50.926;5.332;2022-08-19T05:33:50;19.70;99.90
25554;DHT22;13446;50.926;5.332;2022-08-19T05:36:16;19.80;99.90
25554;DHT22;13446;50.926;5.332;2022-08-19T05:38:41;19.90;99.90
25554;DHT22;13446;50.926;5.332;2022-08-19T05:41:08;19.90;99.90
25554;DHT22;13446;50.926;5.332;2022-08-19T05:43:34;20.10;99.90
25554;DHT22;13446;50.926;5.332;2022-08-19T05:45:59;20.20;99.90
25554;DHT22;13446;50.926;5.332;2022-08-19T05:48:25;20.40;99.90
25554;DHT22;13446;50.926;5.332;2022-08-19T05:50:51;20.60;99.90
25554;DHT22;13446;50.926;5.332;2022-08-19T05:53:17;20.70;99.90
25554;DHT22;13446;50.926;5.332;2022-08-19T05:55:43;21.00;99.90
25554;DHT22;13446;50.926;5.332;2022-08-19T05:58:09;21.30;99.90
25554;DHT22;13446;50.926;5.332;2022-08-19T06:00:35;21.80;99.90
25554;DHT22;13446;50.926;5.332;2022-08-19T06:03:01;22.20;99.90
25554;DHT22;13446;50.926;5.332;2022-08-19T06:05:29;22.70;99.90
25554;DHT22;13446;50.926;5.332;2022-08-19T06:07:55;23.10;99.90
25554;DHT22;13446;50.926;5.332;2022-08-19T06:10:20;23.20;99.90
25554;DHT22;13446;50.926;5.332;2022-08-19T06:12:47;23.20;99.90
25554;DHT22;13446;50.926;5.332;2022-08-19T06:15:13;23.30;99.90
25554;DHT22;13446;50.926;5.332;2022-08-19T06:17:39;23.20;99.90
25554;DHT22;13446;50.926;5.332;2022-08-19T06:20:05;23.30;99.90
25554;DHT22;13446;50.926;5.332;2022-08-19T06:22:31;23.40;99.90
25554;DHT22;13446;50.926;5.332;2022-08-19T06:25:03;23.30;99.90
25554;DHT22;13446;50.926;5.332;2022-08-19T06:27:29;23.30;99.90
25554;DHT22;13446;50.926;5.332;2022-08-19T06:29:56;23.40;99.90
25554;DHT22;13446;50.926;5.332;2022-08-19T06:32:21;23.40;99.90
25554;DHT22;13446;50.926;5.332;2022-08-19T06:34:47;23.80;99.90
25554;DHT22;13446;50.926;5.332;2022-08-19T06:37:12;24.20;99.90
25554;DHT22;13446;50.926;5.332;2022-08-19T06:39:39;24.90;99.90
25554;DHT22;13446;50.926;5.332;2022-08-19T06:42:05;25.50;99.90
25554;DHT22;13446;50.926;5.332;2022-08-19T06:44:34;25.80;99.90
25554;DHT22;13446;50.926;5.332;2022-08-19T06:47:02;26.20;99.90
25554;DHT22;13446;50.926;5.332;2022-08-19T06:49:28;26.20;99.90
25554;DHT22;13446;50.926;5.332;2022-08-19T06:51:56;26.00;99.90
25554;DHT22;13446;50.926;5.332;2022-08-19T06:54:22;25.80;99.90
25554;DHT22;13446;50.926;5.332;2022-08-19T06:56:48;25.80;99.90
25554;DHT22;13446;50.926;5.332;2022-08-19T06:59:15;26.10;99.90
25554;DHT22;13446;50.926;5.332;2022-08-19T07:01:43;26.40;99.90
25554;DHT22;13446;50.926;5.332;2022-08-19T07:04:11;26.90;99.90
25554;DHT22;13446;50.926;5.332;2022-08-19T07:06:36;27.20;99.90
25554;DHT22;13446;50.926;5.332;2022-08-19T07:09:03;27.20;99.90
25554;DHT22;13446;50.926;5.332;2022-08-19T07:11:30;27.00;99.90
25554;DHT22;13446;50.926;5.332;2022-08-19T07:13:56;27.30;99.90
25554;DHT22;13446;50.926;5.332;2022-08-19T07:16:21;27.00;99.90
25554;DHT22;13446;50.926;5.332;2022-08-19T07:18:48;26.60;99.90
25554;DHT22;13446;50.926;5.332;2022-08-19T07:21:18;26.50;99.90
25554;DHT22;13446;50.926;5.332;2022-08-19T07:23:44;26.20;99.90
25554;DHT22;13446;50.926;5.332;2022-08-19T07:26:14;25.90;99.90
25554;DHT22;13446;50.926;5.332;2022-08-19T07:28:40;25.40;99.90
25554;DHT22;13446;50.926;5.332;2022-08-19T07:31:06;25.10;99.90
25554;DHT22;13446;50.926;5.332;2022-08-19T07:33:32;25.00;99.90
25554;DHT22;13446;50.926;5.332;2022-08-19T07:35:58;25.10;99.90
25554;DHT22;13446;50.926;5.332;2022-08-19T07:38:23;25.00;99.90
25554;DHT22;13446;50.926;5.332;2022-08-19T07:40:49;24.90;99.90
25554;DHT22;13446;50.926;5.332;2022-08-19T07:43:16;24.80;99.90
25554;DHT22;13446;50.926;5.332;2022-08-19T07:45:47;24.90;99.90
25554;DHT22;13446;50.926;5.332;2022-08-19T07:48:13;24.90;99.90
25554;DHT22;13446;50.926;5.332;2022-08-19T07:50:39;25.00;99.90
25554;DHT22;13446;50.926;5.332;2022-08-19T07:53:05;25.50;99.90
25554;DHT22;13446;50.926;5.332;2022-08-19T07:55:30;25.90;99.90
25554;DHT22;13446;50.926;5.332;2022-08-19T07:57:56;26.30;99.90
25554;DHT22;13446;50.926;5.332;2022-08-19T08:00:22;26.10;99.90
25554;DHT22;13446;50.926;5.332;2022-08-19T08:02:47;25.90;99.90
25554;DHT22;13446;50.926;5.332;2022-08-19T08:05:13;25.80;99.90
25554;DHT22;13446;50.926;5.332;2022-08-19T08:07:57;25.40;99.90
25554;DHT22;13446;50.926;5.332;2022-08-19T08:10:41;25.40;99.90
25554;DHT22;13446;50.926;5.332;2022-08-19T08:13:06;25.40;99.90
25554;DHT22;13446;50.926;5.332;2022-08-19T08:15:32;25.50;99.90
25554;DHT22;13446;50.926;5.332;2022-08-19T08:17:58;25.60;99.90
25554;DHT22;13446;50.926;5.332;2022-08-19T08:20:24;25.70;99.90
25554;DHT22;13446;50.926;5.332;2022-08-19T08:22:49;25.90;99.90
25554;DHT22;13446;50.926;5.332;2022-08-19T08:25:34;26.30;99.90
25554;DHT22;13446;50.926;5.332;2022-08-19T08:28:00;26.60;99.90
25554;DHT22;13446;50.926;5.332;2022-08-19T08:30:27;26.70;99.90
25554;DHT22;13446;50.926;5.332;2022-08-19T08:32:53;26.60;99.90
25554;DHT22;13446;50.926;5.332;2022-08-19T08:35:19;26.50;99.90
25554;DHT22;13446;50.926;5.332;2022-08-19T08:37:46;26.70;99.90
25554;DHT22;13446;50.926;5.332;2022-08-19T08:40:18;26.90;99.90
25554;DHT22;13446;50.926;5.332;2022-08-19T08:42:49;27.90;99.90
25554;DHT22;13446;50.926;5.332;2022-08-19T08:45:17;29.80;98.90
25554;DHT22;13446;50.926;5.332;2022-08-19T08:47:44;30.50;95.60
25554;DHT22;13446;50.926;5.332;2022-08-19T08:50:13;30.60;94.30
25554;DHT22;13446;50.926;5.332;2022-08-19T08:52:45;31.70;91.50
25554;DHT22;13446;50.926;5.332;2022-08-19T08:55:14;31.60;89.80
25554;DHT22;13446;50.926;5.332;2022-08-19T09:00:38;31.50;87.50
25554;DHT22;13446;50.926;5.332;2022-08-19T09:03:19;33.10;82.50
25554;DHT22;13446;50.926;5.332;2022-08-19T09:05:52;33.30;77.60
25554;DHT22;13446;50.926;5.332;2022-08-19T09:16:22;31.60;81.90
25554;DHT22;13446;50.926;5.332;2022-08-19T09:18:52;33.10;79.20
25554;DHT22;13446;50.926;5.332;2022-08-19T09:21:18;34.90;71.50
25554;DHT22;13446;50.926;5.332;2022-08-19T09:23:44;36.20;63.70
25554;DHT22;13446;50.926;5.332;2022-08-19T09:26:14;36.10;61.00
25554;DHT22;13446;50.926;5.332;2022-08-19T09:28:43;34.50;62.50
25554;DHT22;13446;50.926;5.332;2022-08-19T09:31:10;33.60;64.90
25554;DHT22;13446;50.926;5.332;2022-08-19T09:33:35;33.70;65.60
25554;DHT22;13446;50.926;5.332;2022-08-19T09:36:05;33.70;64.20
25554;DHT22;13446;50.926;5.332;2022-08-19T09:38:32;34.80;63.20
25554;DHT22;13446;50.926;5.332;2022-08-19T09:41:01;36.10;59.20
25554;DHT22;13446;50.926;5.332;2022-08-19T09:43:31;37.30;56.70
25554;DHT22;13446;50.926;5.332;2022-08-19T09:45:56;38.60;52.80
25554;DHT22;13446;50.926;5.332;2022-08-19T09:48:22;38.50;52.80
25554;DHT22;13446;50.926;5.332;2022-08-19T09:50:48;39.10;50.40
25554;DHT22;13446;50.926;5.332;2022-08-19T09:53:13;38.50;50.20
25554;DHT22;13446;50.926;5.332;2022-08-19T09:55:42;38.20;48.80
25554;DHT22;13446;50.926;5.332;2022-08-19T09:58:08;38.80;48.70
25554;DHT22;13446;50.926;5.332;2022-08-19T10:00:33;38.20;48.00
25554;DHT22;13446;50.926;5.332;2022-08-19T10:02:59;37.30;49.10
25554;DHT22;13446;50.926;5.332;2022-08-19T10:05:24;37.40;48.40
25554;DHT22;13446;50.926;5.332;2022-08-19T10:08:09;38.20;47.90
25554;DHT22;13446;50.926;5.332;2022-08-19T10:10:37;38.90;47.20
25554;DHT22;13446;50.926;5.332;2022-08-19T10:13:02;40.20;45.80
25554;DHT22;13446;50.926;5.332;2022-08-19T10:15:29;39.90;44.20
25554;DHT22;13446;50.926;5.332;2022-08-19T10:17:54;38.80;45.10
25554;DHT22;13446;50.926;5.332;2022-08-19T10:20:20;38.60;45.30
25554;DHT22;13446;50.926;5.332;2022-08-19T10:22:47;38.70;46.30
25554;DHT22;13446;50.926;5.332;2022-08-19T10:25:12;38.50;44.80
25554;DHT22;13446;50.926;5.332;2022-08-19T10:27:41;39.00;45.90
25554;DHT22;13446;50.926;5.332;2022-08-19T10:30:07;38.80;44.90
25554;DHT22;13446;50.926;5.332;2022-08-19T10:32:33;38.00;46.60
25554;DHT22;13446;50.926;5.332;2022-08-19T10:34:59;37.10;47.30
25554;DHT22;13446;50.926;5.332;2022-08-19T10:37:24;35.50;49.60
25554;DHT22;13446;50.926;5.332;2022-08-19T10:39:50;34.80;50.90
25554;DHT22;13446;50.926;5.332;2022-08-19T10:42:16;33.70;53.00
25554;DHT22;13446;50.926;5.332;2022-08-19T10:44:43;33.20;55.30
25554;DHT22;13446;50.926;5.332;2022-08-19T10:47:09;32.80;55.30
25554;DHT22;13446;50.926;5.332;2022-08-19T10:49:35;33.50;55.70
25554;DHT22;13446;50.926;5.332;2022-08-19T10:52:20;34.20;54.70
25554;DHT22;13446;50.926;5.332;2022-08-19T10:54:59;34.30;53.90
25554;DHT22;13446;50.926;5.332;2022-08-19T10:57:43;34.10;54.30
25554;DHT22;13446;50.926;5.332;2022-08-19T11:00:09;33.50;54.40
25554;DHT22;13446;50.926;5.332;2022-08-19T11:02:35;32.80;55.60
25554;DHT22;13446;50.926;5.332;2022-08-19T11:05:01;32.30;57.30
25554;DHT22;13446;50.926;5.332;2022-08-19T11:07:26;31.90;59.10
25554;DHT22;13446;50.926;5.332;2022-08-19T11:09:52;31.50;59.70
25554;DHT22;13446;50.926;5.332;2022-08-19T11:12:17;31.30;60.80
25554;DHT22;13446;50.926;5.332;2022-08-19T11:14:44;31.30;61.70
25554;DHT22;13446;50.926;5.332;2022-08-19T11:17:10;31.50;62.90
25554;DHT22;13446;50.926;5.332;2022-08-19T11:19:38;31.60;61.40
25554;DHT22;13446;50.926;5.332;2022-08-19T11:22:06;31.80;61.80
25554;DHT22;13446;50.926;5.332;2022-08-19T11:24:34;31.40;62.70
25554;DHT22;13446;50.926;5.332;2022-08-19T11:27:01;31.80;63.00
25554;DHT22;13446;50.926;5.332;2022-08-19T11:29:27;31.80;63.00
25554;DHT22;13446;50.926;5.332;2022-08-19T11:31:53;31.90;63.00
25554;DHT22;13446;50.926;5.332;2022-08-19T11:34:26;31.80;63.10
25554;DHT22;13446;50.926;5.332;2022-08-19T11:36:53;31.80;63.60
25554;DHT22;13446;50.926;5.332;2022-08-19T11:39:20;32.40;63.70
25554;DHT22;13446;50.926;5.332;2022-08-19T11:41:46;32.70;62.20
25554;DHT22;13446;50.926;5.332;2022-08-19T11:44:11;32.80;62.10
25554;DHT22;13446;50.926;5.332;2022-08-19T11:46:38;32.70;61.70
25554;DHT22;13446;50.926;5.332;2022-08-19T11:49:05;32.40;62.00
25554;DHT22;13446;50.926;5.332;2022-08-19T11:51:31;32.60;62.20
25554;DHT22;13446;50.926;5.332;2022-08-19T11:53:57;32.70;62.60
25554;DHT22;13446;50.926;5.332;2022-08-19T11:56:23;32.30;63.70
25554;DHT22;13446;50.926;5.332;2022-08-19T11:58:50;32.40;64.10
25554;DHT22;13446;50.926;5.332;2022-08-19T12:01:18;32.80;63.40
25554;DHT22;13446;50.926;5.332;2022-08-19T12:03:45;32.80;62.80
25554;DHT22;13446;50.926;5.332;2022-08-19T12:06:12;32.40;63.20
25554;DHT22;13446;50.926;5.332;2022-08-19T12:08:38;31.50;65.80
25554;DHT22;13446;50.926;5.332;2022-08-19T12:11:04;31.30;67.80
25554;DHT22;13446;50.926;5.332;2022-08-19T12:13:31;31.00;68.70
25554;DHT22;13446;50.926;5.332;2022-08-19T12:15:56;30.80;71.80
25554;DHT22;13446;50.926;5.332;2022-08-19T12:18:23;30.70;72.80
25554;DHT22;13446;50.926;5.332;2022-08-19T12:20:50;30.70;71.90
25554;DHT22;13446;50.926;5.332;2022-08-19T12:23:16;30.70;73.10
25554;DHT22;13446;50.926;5.332;2022-08-19T12:25:47;30.50;74.90
25554;DHT22;13446;50.926;5.332;2022-08-19T12:28:17;30.50;76.10
25554;DHT22;13446;50.926;5.332;2022-08-19T12:30:43;31.00;76.90
25554;DHT22;13446;50.926;5.332;2022-08-19T12:33:09;32.40;73.80
25554;DHT22;13446;50.926;5.332;2022-08-19T12:35:35;33.30;68.30
25554;DHT22;13446;50.926;5.332;2022-08-19T12:38:00;33.10;67.30
25554;DHT22;13446;50.926;5.332;2022-08-19T12:40:29;32.50;67.80
25554;DHT22;13446;50.926;5.332;2022-08-19T12:42:54;31.90;69.20
25554;DHT22;13446;50.926;5.332;2022-08-19T12:45:20;31.20;72.50
25554;DHT22;13446;50.926;5.332;2022-08-19T12:47:46;30.30;75.80
25554;DHT22;13446;50.926;5.332;2022-08-19T12:50:13;30.00;79.20
25554;DHT22;13446;50.926;5.332;2022-08-19T12:52:38;29.70;81.00
25554;DHT22;13446;50.926;5.332;2022-08-19T12:55:06;29.70;81.80
25554;DHT22;13446;50.926;5.332;2022-08-19T12:57:32;29.70;82.50
25554;DHT22;13446;50.926;5.332;2022-08-19T13:02:26;29.30;86.60
25554;DHT22;13446;50.926;5.332;2022-08-19T13:04:52;29.40;87.80
25554;DHT22;13446;50.926;5.332;2022-08-19T13:07:17;29.40;87.70
25554;DHT22;13446;50.926;5.332;2022-08-19T13:09:43;29.40;87.40
25554;DHT22;13446;50.926;5.332;2022-08-19T13:12:09;29.30;88.60
25554;DHT22;13446;50.926;5.332;2022-08-19T13:14:38;29.30;89.90
25554;DHT22;13446;50.926;5.332;2022-08-19T13:17:05;29.30;89.80
25554;DHT22;13446;50.926;5.332;2022-08-19T13:19:31;29.20;90.80
25554;DHT22;13446;50.926;5.332;2022-08-19T13:21:57;29.10;91.30
25554;DHT22;13446;50.926;5.332;2022-08-19T13:24:23;29.20;91.60
25554;DHT22;13446;50.926;5.332;2022-08-19T13:26:48;29.10;92.40
25554;DHT22;13446;50.926;5.332;2022-08-19T13:29:14;28.90;93.10
25554;DHT22;13446;50.926;5.332;2022-08-19T13:31:58;28.90;93.40
25554;DHT22;13446;50.926;5.332;2022-08-19T13:34:42;28.80;94.40
25554;DHT22;13446;50.926;5.332;2022-08-19T13:37:07;28.60;94.20
25554;DHT22;13446;50.926;5.332;2022-08-19T13:39:34;28.70;94.80
25554;DHT22;13446;50.926;5.332;2022-08-19T13:42:00;28.80;95.50
25554;DHT22;13446;50.926;5.332;2022-08-19T13:44:26;28.90;95.10
25554;DHT22;13446;50.926;5.332;2022-08-19T13:46:55;28.90;95.20
25554;DHT22;13446;50.926;5.332;2022-08-19T13:49:24;29.10;95.40
25554;DHT22;13446;50.926;5.332;2022-08-19T13:51:50;29.00;95.50
25554;DHT22;13446;50.926;5.332;2022-08-19T13:54:15;29.20;95.00
25554;DHT22;13446;50.926;5.332;2022-08-19T13:56:43;29.30;94.10
25554;DHT22;13446;50.926;5.332;2022-08-19T13:59:09;29.50;94.60
25554;DHT22;13446;50.926;5.332;2022-08-19T14:01:35;29.90;94.30
25554;DHT22;13446;50.926;5.332;2022-08-19T14:04:01;29.70;94.00
25554;DHT22;13446;50.926;5.332;2022-08-19T14:06:27;29.90;93.70
25554;DHT22;13446;50.926;5.332;2022-08-19T14:08:52;29.90;94.00
25554;DHT22;13446;50.926;5.332;2022-08-19T14:11:18;29.70;94.60
25554;DHT22;13446;50.926;5.332;2022-08-19T14:13:44;29.90;94.10
25554;DHT22;13446;50.926;5.332;2022-08-19T14:16:10;29.90;93.80
25554;DHT22;13446;50.926;5.332;2022-08-19T14:18:36;30.20;93.10
25554;DHT22;13446;50.926;5.332;2022-08-19T14:21:03;30.60;92.50
25554;DHT22;13446;50.926;5.332;2022-08-19T14:23:31;30.80;91.80
25554;DHT22;13446;50.926;5.332;2022-08-19T14:26:07;31.00;90.90
25554;DHT22;13446;50.926;5.332;2022-08-19T14:28:33;31.00;90.70
25554;DHT22;13446;50.926;5.332;2022-08-19T14:30:58;31.10;90.20
25554;DHT22;13446;50.926;5.332;2022-08-19T14:33:24;31.10;90.10
25554;DHT22;13446;50.926;5.332;2022-08-19T14:35:50;31.10;90.20
25554;DHT22;13446;50.926;5.332;2022-08-19T14:38:16;31.00;90.00
25554;DHT22;13446;50.926;5.332;2022-08-19T14:40:41;31.00;90.50
25554;DHT22;13446;50.926;5.332;2022-08-19T14:43:07;30.70;90.50
25554;DHT22;13446;50.926;5.332;2022-08-19T14:45:34;30.40;90.70
25554;DHT22;13446;50.926;5.332;2022-08-19T14:48:00;30.20;91.40
25554;DHT22;13446;50.926;5.332;2022-08-19T14:50:26;30.10;91.90
25554;DHT22;13446;50.926;5.332;2022-08-19T14:52:57;29.90;91.80
25554;DHT22;13446;50.926;5.332;2022-08-19T14:55:22;29.70;92.40
25554;DHT22;13446;50.926;5.332;2022-08-19T14:57:48;29.70;92.60
25554;DHT22;13446;50.926;5.332;2022-08-19T15:00:15;29.80;92.90
25554;DHT22;13446;50.926;5.332;2022-08-19T15:02:41;29.60;92.30
25554;DHT22;13446;50.926;5.332;2022-08-19T15:05:09;29.70;92.70
25554;DHT22;13446;50.926;5.332;2022-08-19T15:07:35;29.70;92.40
25554;DHT22;13446;50.926;5.332;2022-08-19T15:10:00;30.00;92.50
25554;DHT22;13446;50.926;5.332;2022-08-19T15:12:26;30.20;92.60
25554;DHT22;13446;50.926;5.332;2022-08-19T15:14:53;30.20;92.30
25554;DHT22;13446;50.926;5.332;2022-08-19T15:17:18;30.10;91.90
25554;DHT22;13446;50.926;5.332;2022-08-19T15:19:44;30.00;91.80
25554;DHT22;13446;50.926;5.332;2022-08-19T15:22:10;29.90;91.50
25554;DHT22;13446;50.926;5.332;2022-08-19T15:24:35;29.70;92.10
25554;DHT22;13446;50.926;5.332;2022-08-19T15:27:01;29.40;93.20
25554;DHT22;13446;50.926;5.332;2022-08-19T15:29:27;29.20;93.70
25554;DHT22;13446;50.926;5.332;2022-08-19T15:31:53;29.00;93.70
25554;DHT22;13446;50.926;5.332;2022-08-19T15:34:22;28.90;94.20
25554;DHT22;13446;50.926;5.332;2022-08-19T15:36:48;28.70;95.00
25554;DHT22;13446;50.926;5.332;2022-08-19T15:39:14;28.50;95.50
25554;DHT22;13446;50.926;5.332;2022-08-19T15:41:39;28.30;96.30